Swallowfield Close, Crewe weather

Latitude N 53° 04' 54" Longitude W 02° 27' 25" Elevation 52 m Grid Ref SJ69475393

This page shows a table of observations data for today using the Cumulus "recent history" webtags facility. It is experimental only. The table shows data observations at 10 minute intervals for the 8 hours prior to 08:50 on Monday 12 April i.e. the time this page was processed by Cumulus. Ideally in the long-term this will be replaced by a script to read data/realtimelog.txt for the current (or selectable) date and display all the observations for the applicable meteorological date (12/04/2021 in this case) starting at midnight (rollover time). This will fix the start of the observations table to a defined point.

The graph shows the same data but at 5-minute intervals.


Table of observations data (at 10-minute intervals) for Swallowfield Close, Crewe since 23:50 on 12/04/2021
Observations
Time Temp Wind Chill Dewpoint Pressure Wind Speed Wind Gust Wind Dir Humidity Rainfall
23:50 0.6 °C 0.6 °C -2.4 °C 1012.7 hPa 0.0 km/h 0.0 km/h 80 % 0.0 mm
00:00 0.7 °C 0.7 °C -2.2 °C 1012.7 hPa 0.0 km/h 0.0 km/h 81 % 0.0 mm
00:10 0.6 °C 0.6 °C -2.1 °C 1012.7 hPa 0.4 km/h 1.1 km/h 82 % 0.0 mm
00:20 0.7 °C 0.7 °C -2.0 °C 1012.7 hPa 0.0 km/h 1.1 km/h 82 % 0.0 mm
00:30 0.8 °C 0.8 °C -1.8 °C 1012.7 hPa 0.2 km/h 1.1 km/h 83 % 0.0 mm
00:40 1.0 °C 1.0 °C -1.6 °C 1012.7 hPa 2.0 km/h 5.0 km/h 83 % 0.0 mm
00:50 1.2 °C 1.2 °C -1.4 °C 1012.7 hPa 2.3 km/h 5.0 km/h 83 % 0.0 mm
01:00 1.4 °C 1.4 °C -1.0 °C 1012.7 hPa 2.9 km/h 5.0 km/h 84 % 0.0 mm
01:10 1.6 °C 1.6 °C -0.6 °C 1012.7 hPa 0.3 km/h 2.5 km/h 85 % 0.0 mm
01:20 1.9 °C 1.9 °C -0.3 °C 1012.7 hPa 2.4 km/h 3.6 km/h 85 % 0.0 mm
01:30 2.0 °C 2.0 °C -0.6 °C 1012.7 hPa 1.2 km/h 3.6 km/h 83 % 0.0 mm
01:40 2.0 °C 2.0 °C -0.7 °C 1012.7 hPa 3.2 km/h 3.6 km/h 82 % 0.0 mm
01:50 2.0 °C 2.0 °C -0.7 °C 1012.7 hPa 2.8 km/h 5.0 km/h 82 % 0.0 mm
02:00 1.8 °C 1.8 °C -0.9 °C 1012.7 hPa 0.9 km/h 2.5 km/h 82 % 0.0 mm
02:10 1.7 °C 1.7 °C -1.0 °C 1012.7 hPa 0.8 km/h 2.5 km/h 82 % 0.0 mm
02:20 1.8 °C 1.8 °C -0.9 °C 1012.7 hPa 2.3 km/h 3.6 km/h 82 % 0.0 mm
02:30 2.0 °C 2.0 °C -0.9 °C 1012.7 hPa 4.6 km/h 6.1 km/h 81 % 0.0 mm
02:40 2.0 °C 2.0 °C -0.7 °C 1012.7 hPa 4.1 km/h 7.2 km/h 82 % 0.0 mm
02:50 2.0 °C 2.0 °C -0.7 °C 1012.7 hPa 3.8 km/h 6.1 km/h 82 % 0.0 mm
03:00 1.9 °C 1.9 °C -0.7 °C 1012.7 hPa 3.9 km/h 6.1 km/h 83 % 0.0 mm
03:10 1.9 °C 1.9 °C -0.7 °C 1012.7 hPa 3.1 km/h 6.1 km/h 83 % 0.0 mm
03:20 1.9 °C 1.9 °C -0.7 °C 1012.7 hPa 3.7 km/h 5.0 km/h 83 % 0.0 mm
03:30 1.9 °C 1.9 °C -0.7 °C 1012.7 hPa 3.3 km/h 6.1 km/h 83 % 0.0 mm
03:40 1.9 °C 1.9 °C -0.7 °C 1012.7 hPa 3.3 km/h 6.1 km/h 83 % 0.0 mm
03:50 1.9 °C 1.9 °C -0.7 °C 1012.7 hPa 1.3 km/h 3.6 km/h 83 % 0.0 mm
04:00 1.8 °C 1.8 °C -0.8 °C 1012.7 hPa 0.1 km/h 1.1 km/h 83 % 0.0 mm
04:10 1.8 °C 1.8 °C -0.8 °C 1012.7 hPa 1.1 km/h 2.5 km/h 83 % 0.0 mm
04:20 1.9 °C 1.9 °C -0.5 °C 1012.7 hPa 1.7 km/h 5.0 km/h 84 % 0.0 mm
04:30 1.9 °C 1.9 °C -0.5 °C 1012.7 hPa 2.0 km/h 5.0 km/h 84 % 0.0 mm
04:40 1.9 °C 1.9 °C -0.5 °C 1012.7 hPa 2.5 km/h 3.6 km/h 84 % 0.0 mm
04:50 1.8 °C 1.8 °C -0.6 °C 1012.7 hPa 3.1 km/h 5.0 km/h 84 % 0.0 mm
05:00 1.9 °C 1.9 °C -0.3 °C 1012.7 hPa 0.4 km/h 3.6 km/h 85 % 0.0 mm
05:10 1.8 °C 1.8 °C -0.4 °C 1012.7 hPa 0.0 km/h 0.0 km/h 85 % 0.0 mm
05:20 1.5 °C 1.5 °C -0.7 °C 1012.7 hPa 0.0 km/h 0.0 km/h 85 % 0.0 mm
05:30 1.3 °C 1.3 °C -0.9 °C 1012.7 hPa 0.0 km/h 0.0 km/h 85 % 0.0 mm
05:40 1.2 °C 1.2 °C -1.0 °C 1012.7 hPa 1.6 km/h 3.6 km/h 85 % 0.0 mm
05:50 1.2 °C 1.2 °C -1.0 °C 1012.7 hPa 0.0 km/h 0.0 km/h 85 % 0.0 mm
06:00 1.0 °C 1.0 °C -1.1 °C 1012.7 hPa 0.0 km/h 0.0 km/h 86 % 0.0 mm
06:10 0.9 °C 0.9 °C -1.0 °C 1012.7 hPa 0.0 km/h 0.0 km/h 87 % 0.0 mm
06:20 0.6 °C 0.6 °C -1.3 °C 1012.7 hPa 0.0 km/h 0.0 km/h 87 % 0.0 mm
06:30 0.5 °C 0.5 °C -1.4 °C 1012.7 hPa 0.0 km/h 0.0 km/h 87 % 0.0 mm
06:40 0.3 °C 0.3 °C -1.6 °C 1012.7 hPa 0.0 km/h 0.0 km/h 87 % 0.0 mm
06:50 0.3 °C 0.3 °C -1.4 °C 1012.7 hPa 0.0 km/h 0.0 km/h 88 % 0.0 mm
07:00 0.3 °C 0.3 °C -1.4 °C 1012.7 hPa 0.0 km/h 0.0 km/h 88 % 0.0 mm
07:10 0.4 °C 0.4 °C -1.2 °C 1012.7 hPa 0.0 km/h 0.0 km/h 89 % 0.0 mm
07:20 0.5 °C 0.5 °C -1.1 °C 1012.7 hPa 0.0 km/h 0.0 km/h 89 % 0.0 mm
07:30 0.8 °C 0.8 °C -0.6 °C 1012.7 hPa 1.1 km/h 2.5 km/h 90 % 0.0 mm
07:40 1.1 °C 1.1 °C -0.5 °C 1012.7 hPa 1.9 km/h 3.6 km/h 89 % 0.0 mm
07:50 1.4 °C 1.4 °C -0.2 °C 1012.7 hPa 3.5 km/h 5.0 km/h 89 % 0.0 mm
08:00 1.6 °C 0.1 °C 0.1 °C 1012.7 hPa 5.3 km/h 6.1 km/h 90 % 0.0 mm
08:10 2.0 °C 2.0 °C 0.4 °C 1012.7 hPa 4.8 km/h 7.2 km/h 89 % 0.0 mm
08:20 2.3 °C 1.0 °C 0.8 °C 1012.7 hPa 5.2 km/h 7.2 km/h 90 % 0.0 mm
08:30 3.3 °C 3.3 °C 2.6 °C 1012.7 hPa 4.5 km/h 6.1 km/h 95 % 0.0 mm
08:40 3.7 °C 3.7 °C 3.0 °C 1012.7 hPa 4.2 km/h 6.1 km/h 95 % 0.0 mm
:now: :trends: :gauges: :today/yesterday: :observations:
:month/year: :monthly records: :all-time records: :annual data: :noaa reports: :seasonal averages:
:mobile: :forum: :webcam: :system:



Page updated 12/04/2021 08:50:11
powered by Cumulus v1.9.4 (1099)